Center Point, Louisiana
Current Conditions -  °F | °C
As of 2:53 AM on Friday 19 Dec 2014 (Local Time) from KESF Reporting Station
Overcast Overcast  
Wind Chill: 51°   Ceiling: 300
Heat Index: 51°   Visibility: 10mi
Dew Point: 50°   Wind: 6mph
Humidity: 96%   Direction: NA
Pressure: 30.09"   Gusts: NA
Location:  31.25°N, 92.21°W
Report Text: KESF 190853Z AUTO VRB05KT 10SM OVC003 11/10 A3009 RMK AO2 SLP189 T01060100 56017
Loading
Personal Weather Stations






























Interactive Weather Map New forecast layout! Learn more

10-Day Weather Forecast

Advertisements
Track Severe Weather on mobile